createdAt,value
2022-08-26T00:00:15.986Z,100113.97
2022-08-26T00:03:08.427Z,100111.55
2022-08-26T00:05:41.912Z,100111.92
2022-08-26T00:08:15.927Z,100113.20
2022-08-26T00:10:48.391Z,100117.54
2022-08-26T00:13:22.103Z,100112.98
2022-08-26T00:15:54.261Z,100113.66
2022-08-26T00:18:26.538Z,100113.98
2022-08-26T00:20:58.667Z,100110.27
2022-08-26T00:23:31.262Z,100111.84
2022-08-26T00:26:05.281Z,100111.39
2022-08-26T00:28:40.607Z,100109.94
2022-08-26T00:31:12.855Z,100110.47
2022-08-26T00:33:45.384Z,100106.30
2022-08-26T00:36:20.262Z,100106.91
2022-08-26T00:38:53.030Z,100104.90
2022-08-26T00:41:25.155Z,100103.87
2022-08-26T00:43:57.972Z,100106.80
2022-08-26T00:46:35.305Z,100105.44
2022-08-26T00:49:13.648Z,100110.91
2022-08-26T00:51:50.027Z,100107.29
2022-08-26T00:54:26.896Z,100111.11
2022-08-26T00:57:02.629Z,100113.53
2022-08-26T00:59:38.838Z,100114.98
2022-08-26T01:02:21.236Z,100116.66
2022-08-26T01:04:56.487Z,100117.28
2022-08-26T01:07:31.448Z,100113.60
2022-08-26T01:10:07.792Z,100115.86
2022-08-26T01:12:44.095Z,100113.16
2022-08-26T01:15:20.908Z,100112.89
2022-08-26T01:17:51.358Z,100112.91
2022-08-26T01:20:35.365Z,100113.63
2022-08-26T01:23:10.022Z,100112.00
2022-08-26T01:25:45.415Z,100106.34
2022-08-26T01:28:22.849Z,100108.13
2022-08-26T01:30:57.984Z,100106.69
2022-08-26T01:33:42.176Z,100111.52
2022-08-26T01:36:16.379Z,100111.55
2022-08-26T01:38:48.632Z,100111.53
2022-08-26T01:41:27.492Z,100110.85
2022-08-26T01:44:03.052Z,100109.05
2022-08-26T01:46:36.214Z,100110.98
2022-08-26T01:49:11.477Z,100104.54
2022-08-26T01:51:44.563Z,100107.98
2022-08-26T01:54:17.171Z,100107.38
2022-08-26T01:56:53.974Z,100107.59
2022-08-26T01:59:26.621Z,100106.91
2022-08-26T02:01:59.417Z,100106.86
2022-08-26T02:04:35.968Z,100108.90
2022-08-26T02:07:10.529Z,100106.27
2022-08-26T02:09:44.267Z,100108.52
2022-08-26T02:12:19.547Z,100108.21
2022-08-26T02:14:55.133Z,100112.34
2022-08-26T02:17:41.279Z,100111.81
2022-08-26T02:20:17.034Z,100109.39
2022-08-26T02:22:50.026Z,100111.49
2022-08-26T02:25:27.202Z,100106.33
2022-08-26T02:27:59.662Z,100105.05
2022-08-26T02:30:34.811Z,100103.15
2022-08-26T02:33:08.538Z,100099.79
2022-08-26T02:35:41.860Z,100102.70
2022-08-26T02:38:14.117Z,100107.69
2022-08-26T02:40:46.161Z,100102.67
2022-08-26T02:43:31.471Z,100101.64
2022-08-26T02:46:04.955Z,100099.27
2022-08-26T02:48:37.607Z,100101.24
2022-08-26T02:51:09.847Z,100099.67
2022-08-26T02:53:42.331Z,100098.77
2022-08-26T02:56:14.804Z,100099.14
2022-08-26T02:58:47.680Z,100097.66
2022-08-26T03:01:35.228Z,100097.92
2022-08-26T03:04:12.379Z,100095.16
2022-08-26T03:06:52.636Z,100095.24
2022-08-26T03:09:25.899Z,100094.20
2022-08-26T03:11:58.279Z,100091.71
2022-08-26T03:14:30.635Z,100091.96
2022-08-26T03:17:02.760Z,100092.52
2022-08-26T03:19:36.099Z,100095.16
2022-08-26T03:22:08.743Z,100095.67
2022-08-26T03:24:41.009Z,100095.88
2022-08-26T03:27:19.122Z,100095.87
2022-08-26T03:30:08.663Z,100095.73
2022-08-26T03:32:44.629Z,100095.56
2022-08-26T03:35:16.649Z,100095.36
2022-08-26T03:37:48.725Z,100095.36
2022-08-26T03:40:22.359Z,100091.85
2022-08-26T03:42:55.002Z,100091.13
2022-08-26T03:45:27.492Z,100087.73
2022-08-26T03:47:59.885Z,100087.42
2022-08-26T03:50:34.299Z,100088.17
2022-08-26T03:53:12.807Z,100084.98
2022-08-26T03:55:45.984Z,100082.68
2022-08-26T03:58:18.653Z,100084.50
2022-08-26T04:00:55.580Z,100082.77
2022-08-26T04:03:45.550Z,100082.74
2022-08-26T04:06:18.195Z,100082.23
2022-08-26T04:08:50.332Z,100080.34
2022-08-26T04:11:24.818Z,100081.67
2022-08-26T04:13:57.439Z,100084.05
2022-08-26T04:16:32.746Z,100084.98
2022-08-26T04:19:05.424Z,100086.44
2022-08-26T04:21:38.586Z,100084.63
2022-08-26T04:24:12.505Z,100087.13
2022-08-26T04:26:46.244Z,100088.92
2022-08-26T04:29:21.540Z,100084.70
2022-08-26T04:31:56.220Z,100083.73
2022-08-26T04:34:30.331Z,100079.95
2022-08-26T04:37:02.667Z,100085.01
2022-08-26T04:39:35.802Z,100085.35
2022-08-26T04:42:08.931Z,100078.04
2022-08-26T04:44:41.242Z,100078.14
2022-08-26T04:47:13.639Z,100080.91
2022-08-26T04:49:45.713Z,100079.77
2022-08-26T04:52:18.102Z,100080.63
2022-08-26T04:54:50.172Z,100081.61
2022-08-26T04:57:23.466Z,100081.73
2022-08-26T04:59:56.187Z,100085.19
2022-08-26T05:02:28.757Z,100080.77
2022-08-26T05:05:00.943Z,100083.35
2022-08-26T05:07:33.138Z,100085.39
2022-08-26T05:10:08.742Z,100086.31
2022-08-26T05:12:41.076Z,100085.02
2022-08-26T05:15:16.520Z,100087.44
2022-08-26T05:17:51.071Z,100081.92
2022-08-26T05:20:26.061Z,100082.55
2022-08-26T05:23:00.688Z,100082.11
2022-08-26T05:25:33.718Z,100082.96
2022-08-26T05:28:06.151Z,100083.78
2022-08-26T05:30:38.929Z,100084.63
2022-08-26T05:33:11.992Z,100080.44
2022-08-26T05:35:45.442Z,100079.65
2022-08-26T05:38:20.270Z,100077.09
2022-08-26T05:40:53.288Z,100077.60
2022-08-26T05:43:25.507Z,100081.27
2022-08-26T05:45:58.374Z,100080.29
2022-08-26T05:48:31.139Z,100083.73
2022-08-26T05:51:07.076Z,100086.21
2022-08-26T05:53:43.782Z,100087.92
2022-08-26T05:56:27.904Z,100090.80
2022-08-26T05:59:02.410Z,100093.79
2022-08-26T06:01:36.689Z,100091.14
2022-08-26T06:04:09.769Z,100091.16
2022-08-26T06:06:43.185Z,100093.14
2022-08-26T06:09:17.473Z,100091.41
2022-08-26T06:11:50.533Z,100084.10
2022-08-26T06:14:23.163Z,100089.08
2022-08-26T06:16:55.347Z,100085.77
2022-08-26T06:19:33.087Z,100080.95
2022-08-26T06:22:26.871Z,100074.89
2022-08-26T06:25:16.342Z,100078.84
2022-08-26T06:27:48.998Z,100076.81
2022-08-26T06:30:22.703Z,100073.36
2022-08-26T06:32:57.721Z,100081.95
2022-08-26T06:35:30.087Z,100084.65
2022-08-26T06:38:03.419Z,100089.29
2022-08-26T06:40:36.687Z,100086.93
2022-08-26T06:43:10.401Z,100090.61
2022-08-26T06:45:44.864Z,100089.52
2022-08-26T06:48:19.316Z,100088.80
2022-08-26T06:50:51.410Z,100090.16
2022-08-26T06:53:23.634Z,100095.59
2022-08-26T06:55:55.663Z,100090.73
2022-08-26T06:58:28.986Z,100089.44
2022-08-26T07:01:09.117Z,100091.66
2022-08-26T07:03:43.696Z,100084.96
2022-08-26T07:06:19.825Z,100087.11
2022-08-26T07:08:53.746Z,100087.24
2022-08-26T07:11:26.086Z,100087.46
2022-08-26T07:14:00.261Z,100085.81
2022-08-26T07:16:33.139Z,100086.45
2022-08-26T07:19:10.937Z,100082.36
2022-08-26T07:21:44.199Z,100083.97
2022-08-26T07:24:16.352Z,100082.87
2022-08-26T07:26:48.615Z,100077.71
2022-08-26T07:29:24.437Z,100076.32
2022-08-26T07:31:58.444Z,100079.58
2022-08-26T07:34:32.263Z,100077.95
2022-08-26T07:37:06.336Z,100071.41
2022-08-26T07:39:42.068Z,100072.42
2022-08-26T07:42:19.753Z,100070.89
2022-08-26T07:44:51.791Z,100075.62
2022-08-26T07:47:25.781Z,100072.48
2022-08-26T07:50:00.737Z,100073.23
2022-08-26T07:52:33.783Z,100071.59
2022-08-26T07:55:08.720Z,100069.27
2022-08-26T07:57:40.947Z,100063.41
2022-08-26T08:00:17.676Z,100062.77
2022-08-26T08:02:49.807Z,100064.86
2022-08-26T08:05:33.358Z,100061.15
2022-08-26T08:08:26.329Z,100064.23
2022-08-26T08:11:00.479Z,100060.38
2022-08-26T08:13:32.796Z,100059.30
2022-08-26T08:16:07.066Z,100062.41
2022-08-26T08:18:45.064Z,100062.01
2022-08-26T08:21:21.217Z,100058.56
2022-08-26T08:23:55.450Z,100057.55
2022-08-26T08:26:29.194Z,100054.70
2022-08-26T08:29:01.262Z,100054.40
2022-08-26T08:34:29.851Z,100045.71
2022-08-26T08:37:01.931Z,100050.23
2022-08-26T08:39:35.755Z,100047.75
2022-08-26T08:42:38.004Z,100048.90
2022-08-26T08:45:15.503Z,100047.60
2022-08-26T08:47:54.721Z,100042.33
2022-08-26T08:50:31.087Z,100039.27
2022-08-26T08:53:13.763Z,100046.50
2022-08-26T08:55:59.546Z,100043.63
2022-08-26T08:58:43.756Z,100039.63
2022-08-26T09:01:26.038Z,100034.77
2022-08-26T09:04:19.336Z,100031.41
2022-08-26T09:09:36.502Z,100040.06
2022-08-26T09:12:12.849Z,100035.60
2022-08-26T09:14:46.530Z,100039.09
2022-08-26T09:17:33.703Z,100033.96
2022-08-26T09:20:13.454Z,100035.05
2022-08-26T09:22:45.620Z,100039.05
2022-08-26T09:25:18.637Z,100037.13
2022-08-26T09:27:52.889Z,100037.14
2022-08-26T09:30:28.787Z,100030.44
2022-08-26T09:33:10.170Z,100024.08
2022-08-26T09:35:47.509Z,100027.92
2022-08-26T09:38:29.356Z,100021.44
2022-08-26T09:41:05.117Z,100025.98
2022-08-26T09:43:37.632Z,100019.99
2022-08-26T09:46:19.695Z,100025.73
2022-08-26T09:48:53.191Z,100023.77
2022-08-26T09:51:35.577Z,100023.42
2022-08-26T09:54:08.249Z,100021.73
2022-08-26T09:56:41.282Z,100019.98
2022-08-26T09:59:14.936Z,100026.26
2022-08-26T10:01:51.207Z,100026.29
2022-08-26T10:04:27.268Z,100024.81
2022-08-26T10:07:02.043Z,100020.50
2022-08-26T10:09:38.865Z,100021.13
2022-08-26T10:12:14.620Z,100019.54
2022-08-26T10:14:52.404Z,100015.14
2022-08-26T10:17:31.709Z,100016.05
2022-08-26T10:20:23.169Z,100009.61
2022-08-26T10:23:00.586Z,100009.54
2022-08-26T10:25:39.253Z,100006.73
2022-08-26T10:28:23.835Z,100005.48
2022-08-26T10:31:01.885Z,100007.95
2022-08-26T10:33:34.258Z,100008.48
2022-08-26T10:36:39.343Z,99999.54
2022-08-26T10:39:21.277Z,100000.05
2022-08-26T10:41:58.290Z,100001.21
2022-08-26T10:44:35.511Z,100001.84
2022-08-26T10:47:16.850Z,100000.59
2022-08-26T10:49:50.643Z,100000.17
2022-08-26T10:52:29.508Z,99992.87
2022-08-26T10:55:12.161Z,99993.02
2022-08-26T10:57:52.658Z,99988.91
2022-08-26T11:00:46.951Z,99982.34
2022-08-26T11:03:34.537Z,99982.55
2022-08-26T11:06:28.269Z,99988.18
2022-08-26T11:09:03.201Z,99980.98
2022-08-26T11:11:53.010Z,99980.49
2022-08-26T11:14:46.226Z,99978.97
2022-08-26T11:17:57.533Z,99974.14
2022-08-26T11:20:41.826Z,99971.06
2022-08-26T11:23:50.346Z,99975.14
2022-08-26T11:26:56.004Z,99967.34
2022-08-26T11:30:03.330Z,99965.94
2022-08-26T11:32:50.623Z,99961.84
2022-08-26T11:35:52.337Z,99959.83
2022-08-26T11:38:30.636Z,99958.84
2022-08-26T11:41:13.305Z,99955.85
2022-08-26T11:43:47.607Z,99957.62
2022-08-26T11:46:28.747Z,99954.23
2022-08-26T11:49:06.589Z,99946.84
2022-08-26T11:51:40.573Z,99943.60
2022-08-26T11:54:16.342Z,99938.08
2022-08-26T11:56:51.043Z,99939.51
2022-08-26T12:02:19.182Z,99939.23
2022-08-26T12:04:53.051Z,99937.89
2022-08-26T12:07:29.089Z,99933.98
2022-08-26T12:10:05.274Z,99927.94
2022-08-26T12:12:40.463Z,99925.52
2022-08-26T12:15:18.833Z,99926.03
2022-08-26T12:17:54.615Z,99921.63
2022-08-26T12:20:48.356Z,99921.73
2022-08-26T12:23:44.381Z,99917.74
2022-08-26T12:26:23.938Z,99919.44
2022-08-26T12:28:59.265Z,99913.88
2022-08-26T12:31:37.008Z,99906.01
2022-08-26T12:34:17.902Z,99910.31
2022-08-26T12:36:53.684Z,99908.39
2022-08-26T12:39:31.381Z,99904.66
2022-08-26T12:42:08.038Z,99897.98
2022-08-26T12:44:54.171Z,99887.89
2022-08-26T12:47:42.245Z,99882.59
2022-08-26T12:50:24.941Z,99883.96
2022-08-26T12:53:02.113Z,99883.92
2022-08-26T12:55:43.833Z,99882.30
2022-08-26T12:58:26.027Z,99878.77
2022-08-26T13:01:19.128Z,99875.30
2022-08-26T13:03:52.102Z,99876.55
2022-08-26T13:06:32.804Z,99873.69
2022-08-26T13:09:26.349Z,99872.30
2022-08-26T13:12:02.305Z,99878.56
2022-08-26T13:14:33.333Z,99869.54
2022-08-26T13:17:05.472Z,99860.59
2022-08-26T13:19:37.567Z,99854.63
2022-08-26T13:22:12.817Z,99852.45
2022-08-26T13:24:45.949Z,99853.88
2022-08-26T13:27:20.833Z,99859.30
2022-08-26T13:29:53.283Z,99856.21
2022-08-26T13:32:27.608Z,99855.15
2022-08-26T13:35:00.378Z,99853.02
2022-08-26T13:37:38.066Z,99848.79
2022-08-26T13:40:13.293Z,99848.84
2022-08-26T13:42:49.919Z,99851.18
2022-08-26T13:45:22.442Z,99847.45
2022-08-26T13:47:54.541Z,99842.73
2022-08-26T13:50:26.990Z,99839.75
2022-08-26T13:52:59.354Z,99836.50
2022-08-26T13:55:31.747Z,99830.48
2022-08-26T13:58:03.909Z,99821.67
2022-08-26T14:00:38.068Z,99827.20
2022-08-26T14:03:13.414Z,99828.38
2022-08-26T14:05:45.808Z,99824.27
2022-08-26T14:08:18.208Z,99827.15
2022-08-26T14:10:50.793Z,99828.27
2022-08-26T14:13:23.109Z,99828.29
2022-08-26T14:15:56.708Z,99829.63
2022-08-26T14:18:36.332Z,99823.61
2022-08-26T14:21:15.279Z,99827.02
2022-08-26T14:23:47.784Z,99825.44
2022-08-26T14:26:28.603Z,99823.98
2022-08-26T14:29:04.153Z,99823.63
2022-08-26T14:31:38.065Z,99819.59
2022-08-26T14:34:10.894Z,99814.09
2022-08-26T14:36:43.681Z,99814.47
2022-08-26T14:39:16.776Z,99811.71
2022-08-26T14:41:54.049Z,99808.73
2022-08-26T14:44:29.963Z,99807.02
2022-08-26T14:47:06.231Z,99806.77
2022-08-26T14:49:39.360Z,99799.66
2022-08-26T14:52:11.639Z,99795.95
2022-08-26T14:54:43.777Z,99800.85
2022-08-26T14:57:17.215Z,99807.09
2022-08-26T14:59:50.639Z,99801.33
2022-08-26T15:02:32.476Z,99802.55
2022-08-26T15:05:08.638Z,99803.27
2022-08-26T15:07:41.200Z,99801.89
2022-08-26T15:10:15.804Z,99799.23
2022-08-26T15:12:48.166Z,99797.21
2022-08-26T15:15:21.078Z,99801.30
2022-08-26T15:17:53.468Z,99797.56
2022-08-26T15:20:25.677Z,99794.32
2022-08-26T15:22:59.001Z,99790.95
2022-08-26T15:25:38.167Z,99791.23
2022-08-26T15:28:10.379Z,99790.19
2022-08-26T15:30:43.298Z,99789.27
2022-08-26T15:33:16.972Z,99785.52
2022-08-26T15:35:49.237Z,99783.80
2022-08-26T15:38:21.437Z,99785.33
2022-08-26T15:40:53.566Z,99781.08
2022-08-26T15:43:29.292Z,99776.65
2022-08-26T15:46:01.812Z,99779.46
2022-08-26T15:48:34.071Z,99776.42
2022-08-26T15:51:07.441Z,99775.59
2022-08-26T15:53:39.630Z,99771.75
2022-08-26T15:56:11.808Z,99770.71
2022-08-26T15:58:44.060Z,99770.59
2022-08-26T16:01:18.208Z,99776.22
2022-08-26T16:04:00.410Z,99776.34
2022-08-26T16:06:34.956Z,99774.64
2022-08-26T16:09:37.952Z,99773.86
2022-08-26T16:12:11.062Z,99775.30
2022-08-26T16:14:46.777Z,99769.20
2022-08-26T16:17:19.929Z,99769.84
2022-08-26T16:19:52.569Z,99766.66
2022-08-26T16:22:25.648Z,99764.79
2022-08-26T16:25:01.547Z,99763.92
2022-08-26T16:27:33.856Z,99762.98
2022-08-26T16:30:07.943Z,99761.84
2022-08-26T16:32:40.196Z,99763.67
2022-08-26T16:35:12.816Z,99760.73
2022-08-26T16:37:46.100Z,99761.30
2022-08-26T16:40:19.440Z,99764.91
2022-08-26T16:42:51.937Z,99764.41
2022-08-26T16:45:25.615Z,99766.45
2022-08-26T16:47:59.418Z,99767.30
2022-08-26T16:50:32.070Z,99768.88
2022-08-26T16:53:04.854Z,99769.27
2022-08-26T16:55:38.251Z,99768.52
2022-08-26T16:58:10.512Z,99770.74
2022-08-26T17:00:43.557Z,99773.80
2022-08-26T17:03:16.156Z,99771.89
2022-08-26T17:05:48.777Z,99773.78
2022-08-26T17:08:27.442Z,99772.39
2022-08-26T17:11:03.676Z,99773.02
2022-08-26T17:13:36.861Z,99771.88
2022-08-26T17:16:11.796Z,99773.06
2022-08-26T17:18:44.871Z,99772.87
2022-08-26T17:21:17.744Z,99773.00
2022-08-26T17:23:50.423Z,99779.11
2022-08-26T17:26:23.450Z,99777.17
2022-08-26T17:28:57.228Z,99774.48
2022-08-26T17:31:29.583Z,99779.83
2022-08-26T17:34:04.205Z,99780.48
2022-08-26T17:36:36.326Z,99777.35
2022-08-26T17:39:08.672Z,99781.41
2022-08-26T17:41:41.483Z,99781.63
2022-08-26T17:44:13.752Z,99782.83
2022-08-26T17:46:45.884Z,99781.80
2022-08-26T17:49:18.061Z,99784.17
2022-08-26T17:51:50.333Z,99783.98
2022-08-26T17:54:22.530Z,99786.41
2022-08-26T17:56:55.133Z,99784.80
2022-08-26T17:59:30.524Z,99785.95
2022-08-26T18:02:03.047Z,99785.45
2022-08-26T18:04:35.301Z,99787.59
2022-08-26T18:07:10.605Z,99784.52
2022-08-26T18:09:46.320Z,99789.27
2022-08-26T18:12:18.359Z,99786.47
2022-08-26T18:14:50.553Z,99787.89
2022-08-26T18:17:22.995Z,99787.05
2022-08-26T18:19:55.136Z,99787.68
2022-08-26T18:22:27.870Z,99789.73
2022-08-26T18:24:59.881Z,99791.63
2022-08-26T18:27:31.936Z,99789.73
2022-08-26T18:30:04.625Z,99792.05
2022-08-26T18:32:36.789Z,99790.83
2022-08-26T18:35:21.200Z,99792.46
2022-08-26T18:38:01.432Z,99794.31
2022-08-26T18:40:51.345Z,99796.34
2022-08-26T18:43:26.351Z,99797.33
2022-08-26T18:46:06.795Z,99801.18
2022-08-26T18:48:40.168Z,99804.03
2022-08-26T18:51:19.408Z,99805.23
2022-08-26T18:53:54.141Z,99803.30
2022-08-26T18:56:26.598Z,99803.18
2022-08-26T18:59:03.892Z,99802.98
2022-08-26T19:01:37.723Z,99804.11
2022-08-26T19:04:15.686Z,99806.12
2022-08-26T19:06:50.843Z,99808.23
2022-08-26T19:09:27.414Z,99801.61
2022-08-26T19:12:07.098Z,99804.34
2022-08-26T19:14:41.862Z,99805.08
2022-08-26T19:17:14.427Z,99805.83
2022-08-26T19:19:55.389Z,99805.53
2022-08-26T19:22:40.665Z,99801.77
2022-08-26T19:25:13.905Z,99803.90
2022-08-26T19:27:46.211Z,99803.52
2022-08-26T19:30:20.087Z,99808.63
2022-08-26T19:32:52.387Z,99806.02
2022-08-26T19:35:24.409Z,99803.30
2022-08-26T19:37:59.034Z,99804.21
2022-08-26T19:40:32.008Z,99806.58
2022-08-26T19:43:04.903Z,99806.27
2022-08-26T19:45:38.937Z,99809.46
2022-08-26T19:48:15.887Z,99808.27
2022-08-26T19:50:48.078Z,99807.88
2022-08-26T19:53:20.248Z,99809.02
2022-08-26T19:55:52.526Z,99810.94
2022-08-26T19:58:24.744Z,99810.45
2022-08-26T20:00:57.058Z,99810.77
2022-08-26T20:03:29.418Z,99809.33
2022-08-26T20:06:01.482Z,99810.90
2022-08-26T20:08:34.022Z,99810.16
2022-08-26T20:11:11.304Z,99808.17
2022-08-26T20:13:44.431Z,99806.89
2022-08-26T20:16:17.712Z,99808.33
2022-08-26T20:19:07.679Z,99807.55
2022-08-26T20:21:46.832Z,99809.94
2022-08-26T20:24:21.310Z,99807.77
2022-08-26T20:26:53.579Z,99810.30
2022-08-26T20:29:26.107Z,99810.48
2022-08-26T20:31:58.926Z,99811.85
2022-08-26T20:34:35.675Z,99810.23
2022-08-26T20:37:09.320Z,99811.42
2022-08-26T20:39:42.445Z,99814.29
2022-08-26T20:42:20.064Z,99814.81
2022-08-26T20:44:56.143Z,99815.30
2022-08-26T20:47:31.424Z,99813.59
2022-08-26T20:50:03.784Z,99817.00
2022-08-26T20:52:36.195Z,99815.91
2022-08-26T20:55:10.154Z,99819.64
2022-08-26T20:57:46.111Z,99816.85
2022-08-26T21:00:26.595Z,99820.36
2022-08-26T21:03:07.789Z,99823.26
2022-08-26T21:05:40.038Z,99824.80
2022-08-26T21:08:13.427Z,99831.70
2022-08-26T21:10:46.287Z,99834.16
2022-08-26T21:13:21.102Z,99835.45
2022-08-26T21:15:56.533Z,99832.25
2022-08-26T21:18:29.265Z,99831.64
2022-08-26T21:21:04.275Z,99831.30
2022-08-26T21:23:37.670Z,99829.11
2022-08-26T21:26:13.476Z,99828.19
2022-08-26T21:28:46.796Z,99827.33
2022-08-26T21:31:23.905Z,99824.73
2022-08-26T21:33:56.223Z,99826.80
2022-08-26T21:36:28.555Z,99825.70
2022-08-26T21:39:01.580Z,99825.09
2022-08-26T21:41:33.833Z,99824.11
2022-08-26T21:44:06.872Z,99822.14
2022-08-26T21:46:39.363Z,99820.84
2022-08-26T21:49:13.703Z,99823.70
2022-08-26T21:51:47.987Z,99820.92
2022-08-26T21:54:20.221Z,99823.52
2022-08-26T21:56:52.467Z,99822.17
2022-08-26T21:59:24.790Z,99819.30
2022-08-26T22:01:57.393Z,99815.42
2022-08-26T22:04:30.374Z,99813.35
2022-08-26T22:07:03.579Z,99812.56
2022-08-26T22:09:35.969Z,99817.17
2022-08-26T22:12:13.179Z,99816.43
2022-08-26T22:14:45.721Z,99822.46
2022-08-26T22:17:18.012Z,99823.52
2022-08-26T22:19:51.259Z,99822.36
2022-08-26T22:22:24.357Z,99819.02
2022-08-26T22:24:56.852Z,99820.79
2022-08-26T22:27:29.139Z,99820.01
2022-08-26T22:30:01.386Z,99822.74
2022-08-26T22:32:34.817Z,99824.37
2022-08-26T22:35:11.326Z,99825.94
2022-08-26T22:38:00.879Z,99823.83
2022-08-26T22:40:34.124Z,99826.73
2022-08-26T22:43:06.944Z,99823.67
2022-08-26T22:45:44.278Z,99822.23
2022-08-26T22:48:19.257Z,99820.27
2022-08-26T22:50:58.292Z,99817.81
2022-08-26T22:53:35.214Z,99816.67
2022-08-26T22:56:08.785Z,99814.77
2022-08-26T22:58:41.672Z,99814.27
2022-08-26T23:01:14.246Z,99813.68
2022-08-26T23:03:46.966Z,99808.96
2022-08-26T23:06:19.262Z,99808.75
2022-08-26T23:08:52.201Z,99804.98
2022-08-26T23:11:24.471Z,99804.14
2022-08-26T23:13:56.644Z,99807.44
2022-08-26T23:16:29.442Z,99802.17
2022-08-26T23:19:09.266Z,99804.08
2022-08-26T23:21:42.086Z,99807.31
2022-08-26T23:24:14.804Z,99809.20
2022-08-26T23:26:47.804Z,99807.75
2022-08-26T23:29:20.060Z,99806.09
2022-08-26T23:31:52.260Z,99805.00
2022-08-26T23:34:41.848Z,99801.50
2022-08-26T23:37:14.694Z,99796.86
2022-08-26T23:39:47.551Z,99798.90
2022-08-26T23:42:19.986Z,99791.77
2022-08-26T23:44:52.781Z,99788.36
2022-08-26T23:47:25.472Z,99788.98
2022-08-26T23:49:57.812Z,99789.30
2022-08-26T23:52:47.560Z,99781.55
2022-08-26T23:55:20.585Z,99786.10
2022-08-26T23:57:52.824Z,99787.05
